createdAt,value
2023-01-18T00:03:49.956Z,35.55
2023-01-18T00:06:18.275Z,36.20
2023-01-18T00:08:45.957Z,31.85
2023-01-18T00:11:16.018Z,31.75
2023-01-18T00:13:44.253Z,32.15
2023-01-18T00:16:15.888Z,30.73
2023-01-18T00:18:44.356Z,37.30
2023-01-18T00:21:12.803Z,35.00
2023-01-18T00:23:40.394Z,38.40
2023-01-18T00:26:10.452Z,34.83
2023-01-18T00:28:40.426Z,34.80
2023-01-18T00:31:17.078Z,31.15
2023-01-18T00:33:50.260Z,31.92
2023-01-18T00:36:18.803Z,31.25
2023-01-18T00:38:52.026Z,29.63
2023-01-18T00:41:21.623Z,32.13
2023-01-18T00:43:49.710Z,29.90
2023-01-18T00:46:25.575Z,31.92
2023-01-18T00:48:54.579Z,33.38
2023-01-18T00:51:24.853Z,35.13
2023-01-18T00:53:52.552Z,37.97
2023-01-18T00:56:22.645Z,28.67
2023-01-18T00:58:50.659Z,32.35
2023-01-18T01:01:18.573Z,33.28
2023-01-18T01:04:05.060Z,38.97
2023-01-18T01:06:44.833Z,35.20
2023-01-18T01:09:26.628Z,31.40
2023-01-18T01:12:14.471Z,31.00
2023-01-18T01:15:04.159Z,32.40
2023-01-18T01:17:53.762Z,31.77
2023-01-18T01:20:41.395Z,32.45
2023-01-18T01:23:34.031Z,35.88
2023-01-18T01:26:08.637Z,35.60
2023-01-18T01:28:39.957Z,33.67
2023-01-18T01:31:11.582Z,34.95
2023-01-18T01:33:40.223Z,40.67
2023-01-18T01:36:17.132Z,46.33
2023-01-18T01:38:45.784Z,40.65
2023-01-18T01:41:31.691Z,41.03
2023-01-18T01:44:28.282Z,42.22
2023-01-18T01:47:05.156Z,43.97
2023-01-18T01:49:42.817Z,45.30
2023-01-18T01:52:15.919Z,43.35
2023-01-18T01:54:53.377Z,35.92
2023-01-18T01:57:24.781Z,40.53
2023-01-18T02:00:02.496Z,38.50
2023-01-18T02:02:41.432Z,33.80
2023-01-18T02:05:13.707Z,32.85
2023-01-18T02:07:41.437Z,42.13
2023-01-18T02:10:10.474Z,34.15
2023-01-18T02:12:40.955Z,33.85
2023-01-18T02:15:09.925Z,33.67
2023-01-18T02:17:50.248Z,33.92
2023-01-18T02:20:47.514Z,34.08
2023-01-18T02:23:34.056Z,37.03
2023-01-18T02:26:31.859Z,39.45
2023-01-18T02:29:06.001Z,43.40
2023-01-18T02:31:44.256Z,38.72
2023-01-18T02:34:33.917Z,40.72
2023-01-18T02:39:47.865Z,41.50
2023-01-18T02:42:39.736Z,43.13
2023-01-18T02:45:49.579Z,39.65
2023-01-18T02:48:20.640Z,43.50
2023-01-18T02:50:48.430Z,43.78
2023-01-18T02:53:16.351Z,42.22
2023-01-18T02:55:56.389Z,46.83
2023-01-18T02:58:29.863Z,42.40
2023-01-18T03:01:06.209Z,41.88
2023-01-18T03:03:35.399Z,36.67
2023-01-18T03:06:06.831Z,39.67
2023-01-18T03:08:53.461Z,36.40
2023-01-18T03:11:24.291Z,34.97
2023-01-18T03:13:58.048Z,28.70
2023-01-18T03:16:59.773Z,33.55
2023-01-18T03:20:05.796Z,34.38
2023-01-18T03:22:56.913Z,36.03
2023-01-18T03:25:41.383Z,30.35
2023-01-18T03:28:42.287Z,32.03
2023-01-18T03:31:35.475Z,31.20
2023-01-18T03:34:14.384Z,31.63
2023-01-18T03:36:48.895Z,30.02
2023-01-18T03:39:28.503Z,31.83
2023-01-18T03:42:00.854Z,29.60
2023-01-18T03:45:00.022Z,29.50
2023-01-18T03:47:27.682Z,31.27
2023-01-18T03:49:55.602Z,29.08
2023-01-18T03:52:37.789Z,30.98
2023-01-18T03:55:12.875Z,28.42
2023-01-18T03:57:45.832Z,29.75
2023-01-18T04:00:14.965Z,29.42
2023-01-18T04:02:45.423Z,30.00
2023-01-18T04:05:13.580Z,28.92
2023-01-18T04:07:41.503Z,32.38
2023-01-18T04:10:10.380Z,28.02
2023-01-18T04:12:38.278Z,28.70
2023-01-18T04:15:06.428Z,30.83
2023-01-18T04:17:34.204Z,30.40
2023-01-18T04:20:02.119Z,28.83
2023-01-18T04:22:30.315Z,27.75
2023-01-18T04:24:57.856Z,25.55
2023-01-18T04:27:25.755Z,29.50
2023-01-18T04:29:53.444Z,23.83
2023-01-18T04:32:21.048Z,29.60
2023-01-18T04:34:48.566Z,26.80
2023-01-18T04:37:16.122Z,27.73
2023-01-18T04:39:43.570Z,25.48
2023-01-18T04:42:11.138Z,24.33
2023-01-18T04:44:38.920Z,23.45
2023-01-18T04:47:06.358Z,29.92
2023-01-18T04:49:34.094Z,25.40
2023-01-18T04:52:01.769Z,25.63
2023-01-18T04:54:30.544Z,28.45
2023-01-18T04:56:58.178Z,26.67
2023-01-18T04:59:25.852Z,24.58
2023-01-18T05:01:56.460Z,24.15
2023-01-18T05:04:24.072Z,27.48
2023-01-18T05:06:51.763Z,28.48
2023-01-18T05:09:20.121Z,27.90
2023-01-18T05:11:48.291Z,27.38
2023-01-18T05:14:15.941Z,31.95
2023-01-18T05:16:43.689Z,29.27
2023-01-18T05:19:11.294Z,30.10
2023-01-18T05:21:38.812Z,27.65
2023-01-18T05:24:06.798Z,25.70
2023-01-18T05:26:34.358Z,26.67
2023-01-18T05:29:01.863Z,28.50
2023-01-18T05:31:29.469Z,27.13
2023-01-18T05:33:57.690Z,27.88
2023-01-18T05:36:25.373Z,30.17
2023-01-18T05:38:52.944Z,25.17
2023-01-18T05:41:21.619Z,25.92
2023-01-18T05:43:49.689Z,26.13
2023-01-18T05:46:17.627Z,30.05
2023-01-18T05:48:45.470Z,26.15
2023-01-18T05:51:13.123Z,26.42
2023-01-18T05:53:41.299Z,27.15
2023-01-18T05:56:09.750Z,29.52
2023-01-18T05:58:38.418Z,27.88
2023-01-18T06:01:08.679Z,26.95
2023-01-18T06:03:37.180Z,28.10
2023-01-18T06:06:04.831Z,30.02
2023-01-18T06:08:33.128Z,37.28
2023-01-18T06:11:00.675Z,30.33
2023-01-18T06:13:31.130Z,31.70
2023-01-18T06:16:00.417Z,31.92
2023-01-18T06:21:01.198Z,27.10
2023-01-18T06:23:30.173Z,31.80
2023-01-18T06:25:58.064Z,37.33
2023-01-18T06:28:30.777Z,36.88
2023-01-18T06:30:59.008Z,31.60
2023-01-18T06:33:26.548Z,33.85
2023-01-18T06:35:54.336Z,34.75
2023-01-18T06:38:21.914Z,33.13
2023-01-18T06:40:49.630Z,34.63
2023-01-18T06:43:17.073Z,37.47
2023-01-18T06:45:44.864Z,42.47
2023-01-18T06:48:12.626Z,37.35
2023-01-18T06:50:40.154Z,40.15
2023-01-18T06:53:07.709Z,34.65
2023-01-18T06:55:35.838Z,45.60
2023-01-18T06:58:03.394Z,36.88
2023-01-18T07:00:31.469Z,36.40
2023-01-18T07:02:59.738Z,40.33
2023-01-18T07:05:27.760Z,40.30
2023-01-18T07:07:55.368Z,41.05
2023-01-18T07:10:22.957Z,40.67
2023-01-18T07:12:51.006Z,40.03
2023-01-18T07:15:22.869Z,40.28
2023-01-18T07:17:50.956Z,34.75
2023-01-18T07:20:20.039Z,37.58
2023-01-18T07:22:52.743Z,32.13
2023-01-18T07:25:20.920Z,44.33
2023-01-18T07:27:49.195Z,35.38
2023-01-18T07:30:17.636Z,35.83
2023-01-18T07:32:51.891Z,32.85
2023-01-18T07:35:22.304Z,32.58
2023-01-18T07:37:52.330Z,35.42
2023-01-18T07:40:21.697Z,28.15
2023-01-18T07:42:56.274Z,24.42
2023-01-18T07:45:24.455Z,24.75
2023-01-18T07:47:53.486Z,22.92
2023-01-18T07:50:22.541Z,28.00
2023-01-18T07:52:50.122Z,27.65
2023-01-18T07:55:17.647Z,25.55
2023-01-18T07:57:45.242Z,26.58
2023-01-18T08:00:14.810Z,23.40
2023-01-18T08:02:42.779Z,23.88
2023-01-18T08:05:10.844Z,26.40
2023-01-18T08:07:39.522Z,26.55
2023-01-18T08:10:16.735Z,21.70
2023-01-18T08:13:10.328Z,23.05
2023-01-18T08:15:40.912Z,24.25
2023-01-18T08:18:09.099Z,23.15
2023-01-18T08:20:36.750Z,23.80
2023-01-18T08:26:26.244Z,22.70
2023-01-18T08:28:58.504Z,25.13
2023-01-18T08:31:26.413Z,23.92
2023-01-18T08:33:54.165Z,27.98
2023-01-18T08:36:24.204Z,21.85
2023-01-18T08:38:55.358Z,27.25
2023-01-18T08:41:33.467Z,22.73
2023-01-18T08:44:01.147Z,24.42
2023-01-18T08:46:29.173Z,22.58
2023-01-18T08:48:59.403Z,22.27
2023-01-18T08:51:27.932Z,25.35
2023-01-18T08:53:57.462Z,25.77
2023-01-18T08:56:25.801Z,32.28
2023-01-18T08:58:54.002Z,27.65
2023-01-18T09:01:23.849Z,26.25
2023-01-18T09:03:55.268Z,23.52
2023-01-18T09:06:23.439Z,25.92
2023-01-18T09:08:51.103Z,28.48
2023-01-18T09:11:18.897Z,25.52
2023-01-18T09:13:59.853Z,24.50
2023-01-18T09:16:29.732Z,29.42
2023-01-18T09:19:01.450Z,27.75
2023-01-18T09:21:29.392Z,27.23
2023-01-18T09:23:57.981Z,28.90
2023-01-18T09:26:25.788Z,24.05
2023-01-18T09:28:54.017Z,22.73
2023-01-18T09:31:25.359Z,24.45
2023-01-18T09:33:54.255Z,23.65
2023-01-18T09:36:26.763Z,28.50
2023-01-18T09:38:55.920Z,27.38
2023-01-18T09:41:33.248Z,31.20
2023-01-18T09:44:28.802Z,27.60
2023-01-18T09:47:19.908Z,27.83
2023-01-18T09:49:55.415Z,29.73
2023-01-18T09:52:32.042Z,25.50
2023-01-18T09:55:28.898Z,30.58
2023-01-18T09:58:19.245Z,29.67
2023-01-18T10:00:49.376Z,28.20
2023-01-18T10:03:29.291Z,30.27
2023-01-18T10:06:09.018Z,29.33
2023-01-18T10:09:04.835Z,28.23
2023-01-18T10:11:58.163Z,26.30
2023-01-18T10:14:53.382Z,27.35
2023-01-18T10:17:24.202Z,27.30
2023-01-18T10:19:52.061Z,31.85
2023-01-18T10:22:25.512Z,29.45
2023-01-18T10:25:32.775Z,28.10
2023-01-18T10:28:09.915Z,28.33
2023-01-18T10:30:49.175Z,27.52
2023-01-18T10:33:27.608Z,27.00
2023-01-18T10:36:11.665Z,30.17
2023-01-18T10:38:41.411Z,31.02
2023-01-18T10:41:18.897Z,35.95
2023-01-18T10:43:47.548Z,33.38
2023-01-18T10:46:18.927Z,30.10
2023-01-18T10:48:52.037Z,33.80
2023-01-18T10:51:35.362Z,26.92
2023-01-18T10:54:17.928Z,28.40
2023-01-18T10:56:45.561Z,26.52
2023-01-18T10:59:30.839Z,27.40
2023-01-18T11:01:58.744Z,26.48
2023-01-18T11:04:32.887Z,29.15
2023-01-18T11:07:03.569Z,24.95
2023-01-18T11:09:42.149Z,26.75
2023-01-18T11:12:41.497Z,29.33
2023-01-18T11:15:15.922Z,25.70
2023-01-18T11:18:00.503Z,29.40
2023-01-18T15:07:01.257Z,23.27
2023-01-18T15:09:32.784Z,25.33
2023-01-18T15:12:04.614Z,26.73
2023-01-18T15:14:37.287Z,27.67
2023-01-18T15:17:11.646Z,25.55
2023-01-18T15:19:44.371Z,31.40
2023-01-18T15:22:15.436Z,27.13
2023-01-18T15:24:45.468Z,29.17
2023-01-18T15:27:20.665Z,27.35
2023-01-18T15:29:55.222Z,31.33
2023-01-18T15:32:29.183Z,28.02
2023-01-18T15:34:58.487Z,28.73
2023-01-18T15:37:32.760Z,31.38
2023-01-18T15:40:12.655Z,29.25
2023-01-18T15:43:04.242Z,25.45
2023-01-18T15:45:39.552Z,27.45
2023-01-18T15:48:13.669Z,26.42
2023-01-18T15:50:46.874Z,26.27
2023-01-18T15:53:20.267Z,27.85
2023-01-18T15:55:50.044Z,30.75
2023-01-18T15:58:43.255Z,28.35
2023-01-18T16:01:13.837Z,26.42
2023-01-18T16:03:56.678Z,29.75
2023-01-18T16:06:24.789Z,27.00
2023-01-18T16:08:56.920Z,33.67
2023-01-18T16:11:57.075Z,28.02
2023-01-18T16:14:27.957Z,30.02
2023-01-18T16:17:07.313Z,33.72
2023-01-18T16:19:43.159Z,29.77
2023-01-18T16:22:24.512Z,29.95
2023-01-18T16:24:56.433Z,33.53
2023-01-18T16:27:29.508Z,29.45
2023-01-18T16:30:05.906Z,25.50
2023-01-18T16:32:36.029Z,29.45
2023-01-18T16:35:23.767Z,30.63
2023-01-18T16:37:52.148Z,31.73
2023-01-18T16:40:23.189Z,29.35
2023-01-18T16:43:20.145Z,33.55
2023-01-18T16:45:50.692Z,35.17
2023-01-18T16:48:23.860Z,30.05
2023-01-18T16:51:00.536Z,34.95
2023-01-18T16:53:29.179Z,31.48
2023-01-18T16:55:56.860Z,28.63
2023-01-18T16:58:24.622Z,31.80
2023-01-18T17:01:01.059Z,35.90
2023-01-18T17:03:29.190Z,37.88
2023-01-18T17:05:57.426Z,37.83
2023-01-18T17:08:25.004Z,31.45
2023-01-18T17:10:54.649Z,31.33
2023-01-18T17:15:53.329Z,36.67
2023-01-18T17:18:25.638Z,33.15
2023-01-18T17:20:54.175Z,35.05
2023-01-18T17:23:25.742Z,30.67
2023-01-18T17:25:53.804Z,33.22
2023-01-18T17:28:21.491Z,32.60
2023-01-18T17:30:50.331Z,40.30
2023-01-18T17:33:23.926Z,32.92
2023-01-18T17:35:53.978Z,33.67
2023-01-18T17:38:24.599Z,34.97
2023-01-18T17:40:53.531Z,33.85
2023-01-18T17:43:33.298Z,28.42
2023-01-18T17:46:06.446Z,30.30
2023-01-18T17:48:35.009Z,31.63
2023-01-18T17:51:08.814Z,33.95
2023-01-18T17:53:41.038Z,33.20
2023-01-18T17:56:14.827Z,30.33
2023-01-18T17:58:46.308Z,31.00
2023-01-18T18:01:15.498Z,30.00
2023-01-18T18:06:26.017Z,29.52
2023-01-18T18:08:58.038Z,36.03
2023-01-18T18:11:25.679Z,33.45
2023-01-18T18:13:53.450Z,31.60
2023-01-18T18:16:23.901Z,30.27
2023-01-18T18:18:51.527Z,31.92
2023-01-18T18:21:19.514Z,32.75
2023-01-18T18:23:47.112Z,27.35
2023-01-18T18:26:14.651Z,30.60
2023-01-18T18:28:42.159Z,32.55
2023-01-18T18:31:15.283Z,33.15
2023-01-18T18:33:43.564Z,32.95
2023-01-18T18:36:11.170Z,32.58
2023-01-18T18:38:38.763Z,28.30
2023-01-18T18:41:08.632Z,30.52
2023-01-18T18:43:36.225Z,31.70
2023-01-18T18:46:03.832Z,38.97
2023-01-18T18:48:31.440Z,36.88
2023-01-18T18:50:59.229Z,39.65
2023-01-18T18:53:37.659Z,37.75
2023-01-18T18:56:09.593Z,37.85
2023-01-18T18:58:39.021Z,35.05
2023-01-18T19:01:07.982Z,36.70
2023-01-18T19:03:36.061Z,36.08
2023-01-18T19:06:04.194Z,31.67
2023-01-18T19:08:31.775Z,37.60
2023-01-18T19:11:01.961Z,36.30
2023-01-18T19:13:29.728Z,37.13
2023-01-18T19:15:57.323Z,39.58
2023-01-18T19:18:24.944Z,33.80
2023-01-18T19:20:53.547Z,40.72
2023-01-18T19:23:21.680Z,39.50
2023-01-18T19:25:50.190Z,39.75
2023-01-18T19:28:18.479Z,38.03
2023-01-18T19:30:46.196Z,34.85
2023-01-18T19:33:14.476Z,37.50
2023-01-18T19:35:45.710Z,34.75
2023-01-18T19:38:13.735Z,35.58
2023-01-18T19:40:41.593Z,31.23
2023-01-18T19:43:09.361Z,31.88
2023-01-18T19:45:37.634Z,30.33
2023-01-18T19:48:05.687Z,32.35
2023-01-18T19:50:33.293Z,35.20
2023-01-18T19:53:01.106Z,30.10
2023-01-18T19:55:28.960Z,35.10
2023-01-18T19:57:57.113Z,31.13
2023-01-18T20:00:24.678Z,37.55
2023-01-18T20:02:53.332Z,37.47
2023-01-18T20:05:21.026Z,36.57
2023-01-18T20:07:48.611Z,37.13
2023-01-18T20:10:20.337Z,30.15
2023-01-18T20:12:49.423Z,33.45
2023-01-18T20:15:18.650Z,28.83
2023-01-18T20:17:47.115Z,31.67
2023-01-18T20:20:24.264Z,34.92
2023-01-18T20:22:59.141Z,29.92
2023-01-18T20:25:26.872Z,27.83
2023-01-18T20:27:54.523Z,31.05
2023-01-18T20:30:22.157Z,33.92
2023-01-18T20:32:50.007Z,34.00
2023-01-18T20:35:17.656Z,31.85
2023-01-18T20:37:45.226Z,35.25
2023-01-18T20:40:12.998Z,30.80
2023-01-18T20:42:40.975Z,30.25
2023-01-18T20:45:09.353Z,35.45
2023-01-18T20:47:36.991Z,30.10
2023-01-18T20:50:05.274Z,32.22
2023-01-18T20:52:32.904Z,29.30
2023-01-18T20:55:00.751Z,32.70
2023-01-18T20:57:35.009Z,35.33
2023-01-18T21:00:06.386Z,33.72
2023-01-18T21:02:34.248Z,34.83
2023-01-18T21:05:01.829Z,30.67
2023-01-18T21:07:33.195Z,35.33
2023-01-18T21:10:01.688Z,33.63
2023-01-18T21:12:29.645Z,30.27
2023-01-18T21:14:57.198Z,33.00
2023-01-18T21:17:24.963Z,46.25
2023-01-18T21:19:53.409Z,49.70
2023-01-18T21:22:21.090Z,34.40
2023-01-18T21:24:48.982Z,39.20
2023-01-18T21:27:17.152Z,39.80
2023-01-18T21:29:44.840Z,29.35
2023-01-18T21:32:12.504Z,38.35
2023-01-18T21:34:40.078Z,33.53
2023-01-18T21:37:07.654Z,29.42
2023-01-18T21:39:35.168Z,32.13
2023-01-18T21:42:21.567Z,29.85
2023-01-18T21:45:08.328Z,32.33
2023-01-18T21:47:36.061Z,36.40
2023-01-18T21:50:22.583Z,29.20
2023-01-18T21:53:22.334Z,28.73
2023-01-18T21:55:52.171Z,30.55
2023-01-18T21:58:38.034Z,36.03
2023-01-18T22:01:14.646Z,28.98
2023-01-18T22:03:43.151Z,30.88
2023-01-18T22:06:12.252Z,34.65
2023-01-18T22:08:41.843Z,28.85
2023-01-18T22:11:09.509Z,26.77
2023-01-18T22:13:37.247Z,29.20
2023-01-18T22:16:07.061Z,28.67
2023-01-18T22:18:34.874Z,30.48
2023-01-18T22:21:02.612Z,33.13
2023-01-18T22:23:30.295Z,29.92
2023-01-18T22:25:59.509Z,27.55
2023-01-18T22:28:28.249Z,26.35
2023-01-18T22:30:56.214Z,28.20
2023-01-18T22:33:24.825Z,30.67
2023-01-18T22:35:58.253Z,29.25
2023-01-18T22:38:26.653Z,32.92
2023-01-18T22:41:10.297Z,28.58
2023-01-18T22:43:39.366Z,27.15
2023-01-18T22:46:08.265Z,24.80
2023-01-18T22:48:37.696Z,28.63
2023-01-18T22:51:07.496Z,25.83
2023-01-18T22:56:03.591Z,26.17
2023-01-18T22:58:32.276Z,28.35
2023-01-18T23:00:59.826Z,28.10
2023-01-18T23:03:27.830Z,25.25
2023-01-18T23:06:00.567Z,29.45
2023-01-18T23:08:38.464Z,43.22
2023-01-18T23:11:10.928Z,24.45
2023-01-18T23:13:40.127Z,38.63
2023-01-18T23:16:28.990Z,27.50
2023-01-18T23:18:56.805Z,26.10
2023-01-18T23:21:24.686Z,25.10
2023-01-18T23:23:52.257Z,25.42
2023-01-18T23:26:20.073Z,23.55
2023-01-18T23:28:47.665Z,29.08
2023-01-18T23:31:17.808Z,25.88
2023-01-18T23:33:47.939Z,26.83
2023-01-18T23:36:18.544Z,22.42
2023-01-18T23:39:04.943Z,27.00
2023-01-18T23:41:51.657Z,23.10
2023-01-18T23:44:37.805Z,29.80
2023-01-18T23:47:23.929Z,31.95
2023-01-18T23:50:10.108Z,40.88
2023-01-18T23:52:57.289Z,38.03
2023-01-18T23:55:24.943Z,33.95
2023-01-18T23:57:52.861Z,28.55
